aviador You're here:

SAZN Decoded Metar

NEUQUEN in ARGENTINA
Report Time2018-04-21 07:00:00
UTC Time2018-04-21 07:59:38
Flight Rules vfr VFR
WindCalm
Visibility9999 m
Phenomena:N/A
Clouds:N/A
Expected CloudBase > 2,000 ft AGL from Temp-Dew spread
CeilingNone
Temp11°C (ISA -2)
Dew Point06°C (72% RH)
AAT10.1°C
QNH1014 hPa
Density Alt719 ft
Elevation889 ft
Report Wrong Elevation
Raw Report
METAR SAZN 210700Z 00000KT CAVOK 11/06 Q1014=

Extra information for SAZN:More info

Metar Taf Metar & Taf Last 4 Metars F.Rules Stats Wind Profile Meteogram Temp Stats Airport Information Weather charts Add Link Nearby VenuesMetar ALERT Operation Metar Decoded Social comments